createdAt,value
2022-12-29T00:00:26.922Z,14.60
2022-12-29T00:02:29.182Z,19.07
2022-12-29T00:04:31.675Z,13.43
2022-12-29T00:06:34.360Z,14.83
2022-12-29T00:08:42.637Z,17.23
2022-12-29T00:10:45.029Z,16.30
2022-12-29T00:13:05.447Z,15.60
2022-12-29T00:15:26.308Z,14.80
2022-12-29T00:17:28.417Z,17.93
2022-12-29T00:19:49.121Z,23.20
2022-12-29T00:22:09.654Z,24.23
2022-12-29T00:24:27.421Z,21.70
2022-12-29T00:26:49.883Z,20.73
2022-12-29T00:29:10.929Z,20.77
2022-12-29T00:31:32.101Z,25.50
2022-12-29T00:33:53.325Z,25.63
2022-12-29T00:36:01.844Z,22.93
2022-12-29T00:38:35.077Z,18.13
2022-12-29T00:40:59.054Z,14.77
2022-12-29T00:43:19.705Z,17.50
2022-12-29T00:45:22.048Z,57.17
2022-12-29T00:47:24.140Z,58.63
2022-12-29T00:49:34.925Z,45.83
2022-12-29T00:51:36.947Z,29.23
2022-12-29T00:53:39.069Z,26.70
2022-12-29T00:55:41.510Z,25.80
2022-12-29T00:57:43.527Z,24.27
2022-12-29T00:59:46.390Z,30.77
2022-12-29T01:01:53.543Z,34.03
2022-12-29T01:04:00.259Z,29.50
2022-12-29T01:06:08.749Z,29.70
2022-12-29T01:08:12.942Z,28.80
2022-12-29T01:10:16.293Z,36.33
2022-12-29T01:12:38.585Z,38.37
2022-12-29T01:14:40.708Z,31.20
2022-12-29T01:16:42.795Z,24.77
2022-12-29T01:18:45.320Z,31.70
2022-12-29T01:20:47.394Z,27.80
2022-12-29T01:22:49.349Z,27.03
2022-12-29T01:24:55.027Z,24.77
2022-12-29T01:26:56.959Z,28.67
2022-12-29T01:28:58.931Z,29.20
2022-12-29T01:31:02.740Z,20.03
2022-12-29T01:33:04.811Z,18.87
2022-12-29T01:35:07.221Z,21.73
2022-12-29T01:37:10.753Z,23.83
2022-12-29T01:39:13.283Z,24.00
2022-12-29T01:41:17.693Z,22.23
2022-12-29T01:43:21.155Z,24.63
2022-12-29T01:45:23.292Z,28.53
2022-12-29T01:47:46.335Z,23.03
2022-12-29T01:49:48.869Z,21.20
2022-12-29T01:52:00.581Z,20.30
2022-12-29T01:54:06.387Z,27.63
2022-12-29T01:56:13.813Z,37.93
2022-12-29T01:58:20.428Z,40.13
2022-12-29T02:00:22.965Z,34.67
2022-12-29T02:02:26.120Z,38.80
2022-12-29T02:04:32.580Z,33.13
2022-12-29T02:06:43.200Z,30.83
2022-12-29T02:08:48.478Z,24.93
2022-12-29T02:10:50.585Z,21.80
2022-12-29T02:12:53.941Z,22.60
2022-12-29T02:15:01.636Z,19.60
2022-12-29T02:17:28.453Z,18.13
2022-12-29T02:19:46.456Z,14.90
2022-12-29T02:22:20.629Z,15.23
2022-12-29T02:25:07.696Z,15.63
2022-12-29T02:27:27.738Z,13.10
2022-12-29T02:29:35.835Z,14.90
2022-12-29T02:32:00.116Z,21.60
2022-12-29T02:34:23.347Z,23.03
2022-12-29T02:36:36.635Z,16.93
2022-12-29T02:38:44.441Z,13.13
2022-12-29T02:40:59.417Z,9.87
2022-12-29T02:43:08.247Z,11.13
2022-12-29T02:45:22.448Z,9.93
2022-12-29T02:47:47.362Z,16.27
2022-12-29T02:49:54.759Z,19.00
2022-12-29T02:52:17.910Z,20.87
2022-12-29T02:54:39.320Z,21.67
2022-12-29T02:56:43.209Z,15.13
2022-12-29T02:58:46.361Z,17.33
2022-12-29T03:00:57.759Z,12.27
2022-12-29T03:03:20.068Z,14.83
2022-12-29T03:05:43.098Z,10.13
2022-12-29T03:07:59.846Z,11.27
2022-12-29T03:10:33.109Z,12.67
2022-12-29T03:13:12.684Z,13.10
2022-12-29T03:15:59.551Z,17.20
2022-12-29T03:18:22.920Z,12.97
2022-12-29T03:20:33.025Z,13.70
2022-12-29T03:22:40.962Z,18.03
2022-12-29T03:24:50.675Z,19.40
2022-12-29T03:26:57.717Z,11.60
2022-12-29T03:29:04.998Z,17.90
2022-12-29T03:31:09.416Z,16.60
2022-12-29T03:33:15.787Z,19.90
2022-12-29T03:35:22.169Z,15.70
2022-12-29T03:37:29.956Z,12.23
2022-12-29T03:39:33.866Z,14.30
2022-12-29T03:41:37.718Z,13.40
2022-12-29T03:43:39.710Z,15.93
2022-12-29T03:45:42.352Z,12.10
2022-12-29T03:47:45.389Z,20.63
2022-12-29T03:49:48.668Z,23.20
2022-12-29T03:51:52.068Z,21.70
2022-12-29T03:53:55.266Z,24.20
2022-12-29T03:55:57.644Z,21.53
2022-12-29T03:58:00.339Z,16.83
2022-12-29T04:00:20.911Z,14.37
2022-12-29T04:02:25.836Z,10.53
2022-12-29T04:04:29.113Z,10.60
2022-12-29T04:06:33.895Z,9.90
2022-12-29T04:08:39.774Z,14.57
2022-12-29T04:10:42.817Z,13.60
2022-12-29T04:12:46.910Z,18.43
2022-12-29T04:14:50.044Z,18.77
2022-12-29T04:16:53.524Z,16.63
2022-12-29T04:18:55.805Z,14.30
2022-12-29T04:21:01.837Z,11.70
2022-12-29T04:23:06.452Z,11.73
2022-12-29T04:25:10.390Z,12.47
2022-12-29T04:27:14.204Z,11.47
2022-12-29T04:29:50.830Z,12.00
2022-12-29T04:32:22.139Z,18.83
2022-12-29T04:34:28.477Z,18.33
2022-12-29T04:36:31.117Z,19.43
2022-12-29T04:38:33.824Z,20.33
2022-12-29T04:40:43.964Z,22.50
2022-12-29T04:42:46.547Z,20.63
2022-12-29T04:44:48.825Z,17.20
2022-12-29T04:47:24.878Z,11.50
2022-12-29T04:49:58.121Z,11.57
2022-12-29T04:52:09.564Z,10.77
2022-12-29T04:54:13.072Z,9.47
2022-12-29T04:56:15.839Z,9.67
2022-12-29T04:58:22.803Z,11.13
2022-12-29T05:00:26.546Z,9.23
2022-12-29T05:02:31.815Z,9.13
2022-12-29T05:04:34.384Z,8.77
2022-12-29T05:06:36.453Z,9.47
2022-12-29T05:08:38.642Z,9.43
2022-12-29T05:10:41.500Z,13.03
2022-12-29T05:12:47.310Z,13.87
2022-12-29T05:14:50.078Z,14.90
2022-12-29T05:16:52.339Z,17.30
2022-12-29T05:18:55.044Z,23.17
2022-12-29T05:20:57.554Z,12.93
2022-12-29T05:22:59.680Z,13.27
2022-12-29T05:26:01.101Z,7.80
2022-12-29T05:28:08.595Z,7.77
2022-12-29T05:30:18.014Z,9.60
2022-12-29T05:32:20.524Z,9.67
2022-12-29T05:38:15.479Z,13.90
2022-12-29T05:40:20.146Z,11.30
2022-12-29T05:42:23.128Z,10.10
2022-12-29T05:44:37.532Z,10.90
2022-12-29T05:46:48.934Z,15.27
2022-12-29T05:49:08.922Z,13.40
2022-12-29T05:51:25.827Z,12.87
2022-12-29T05:53:29.452Z,11.47
2022-12-29T05:55:32.595Z,11.73
2022-12-29T05:57:35.726Z,12.53
2022-12-29T05:59:49.491Z,12.77
2022-12-29T06:01:51.742Z,15.70
2022-12-29T06:03:54.363Z,17.47
2022-12-29T06:05:56.786Z,15.00
2022-12-29T06:07:58.994Z,19.50
2022-12-29T06:10:01.101Z,17.77
2022-12-29T06:12:08.166Z,18.93
2022-12-29T06:14:10.859Z,31.13
2022-12-29T06:16:13.148Z,34.90
2022-12-29T06:18:19.872Z,26.60
2022-12-29T06:20:23.048Z,21.63
2022-12-29T06:22:25.346Z,15.17
2022-12-29T06:24:27.372Z,11.83
2022-12-29T06:26:30.439Z,11.53
2022-12-29T06:28:32.814Z,12.00
2022-12-29T06:30:34.988Z,16.07
2022-12-29T06:32:38.119Z,19.57
2022-12-29T06:34:43.234Z,26.33
2022-12-29T06:36:45.290Z,19.20
2022-12-29T06:38:47.549Z,13.50
2022-12-29T06:40:49.547Z,12.27
2022-12-29T06:43:00.785Z,13.93
2022-12-29T06:45:16.762Z,14.57
2022-12-29T06:47:19.815Z,16.10
2022-12-29T06:49:22.249Z,23.60
2022-12-29T06:51:27.635Z,22.67
2022-12-29T06:53:29.733Z,24.83
2022-12-29T06:55:34.474Z,24.00
2022-12-29T06:57:36.528Z,17.53
2022-12-29T06:59:38.616Z,22.37
2022-12-29T07:01:40.714Z,17.33
2022-12-29T07:03:44.435Z,16.37
2022-12-29T07:05:46.291Z,17.90
2022-12-29T07:07:48.359Z,19.33
2022-12-29T07:09:50.288Z,14.00
2022-12-29T07:11:52.357Z,13.30
2022-12-29T07:13:54.756Z,15.33
2022-12-29T07:15:56.988Z,14.07
2022-12-29T07:17:58.838Z,18.33
2022-12-29T07:20:01.092Z,17.70
2022-12-29T07:22:03.197Z,16.13
2022-12-29T07:24:05.923Z,20.17
2022-12-29T07:26:10.911Z,23.57
2022-12-29T07:28:14.168Z,23.30
2022-12-29T07:30:16.431Z,26.57
2022-12-29T07:32:19.769Z,26.53
2022-12-29T07:34:21.924Z,22.10
2022-12-29T07:36:27.991Z,22.80
2022-12-29T07:38:32.982Z,29.93
2022-12-29T07:40:35.791Z,21.53
2022-12-29T07:42:38.109Z,26.70
2022-12-29T07:44:43.509Z,31.57
2022-12-29T07:46:54.558Z,27.10
2022-12-29T07:48:59.299Z,19.67
2022-12-29T07:51:01.526Z,14.23
2022-12-29T07:53:04.718Z,15.43
2022-12-29T07:55:07.442Z,13.07
2022-12-29T07:57:09.518Z,13.77
2022-12-29T07:59:13.254Z,16.73
2022-12-29T08:01:15.496Z,26.50
2022-12-29T08:03:17.694Z,19.30
2022-12-29T08:05:20.158Z,17.60
2022-12-29T08:07:22.512Z,18.20
2022-12-29T08:09:24.839Z,19.23
2022-12-29T08:11:27.003Z,20.97
2022-12-29T08:13:28.908Z,18.33
2022-12-29T08:15:32.730Z,19.47
2022-12-29T08:17:35.354Z,20.20
2022-12-29T08:19:38.405Z,21.87
2022-12-29T08:21:40.956Z,22.57
2022-12-29T08:23:43.107Z,17.00
2022-12-29T08:25:45.416Z,22.00
2022-12-29T08:27:47.706Z,18.03
2022-12-29T08:29:49.943Z,18.67
2022-12-29T08:31:52.069Z,17.83
2022-12-29T08:33:54.000Z,27.43
2022-12-29T08:36:07.034Z,22.67
2022-12-29T08:38:08.999Z,21.07
2022-12-29T08:40:11.495Z,22.60
2022-12-29T08:42:13.781Z,14.97
2022-12-29T08:44:19.031Z,17.47
2022-12-29T08:46:21.363Z,15.23
2022-12-29T08:48:23.662Z,12.37
2022-12-29T08:50:25.981Z,14.47
2022-12-29T08:52:27.999Z,14.87
2022-12-29T08:54:30.188Z,15.23
2022-12-29T08:56:32.942Z,14.07
2022-12-29T08:58:37.907Z,13.30
2022-12-29T09:00:39.826Z,13.23
2022-12-29T09:02:42.033Z,10.93
2022-12-29T09:04:44.108Z,13.13
2022-12-29T09:06:46.474Z,11.57
2022-12-29T09:08:48.988Z,12.43
2022-12-29T09:10:51.781Z,13.80
2022-12-29T09:12:53.681Z,12.37
2022-12-29T09:14:56.002Z,21.20
2022-12-29T09:17:16.422Z,14.13
2022-12-29T09:19:18.583Z,15.30
2022-12-29T09:21:21.488Z,17.03
2022-12-29T09:23:45.730Z,15.77
2022-12-29T09:25:48.771Z,17.77
2022-12-29T09:27:53.568Z,19.47
2022-12-29T09:29:56.636Z,16.20
2022-12-29T09:31:58.633Z,15.87
2022-12-29T09:34:00.850Z,16.53
2022-12-29T09:36:03.568Z,16.60
2022-12-29T09:38:05.820Z,13.17
2022-12-29T09:40:19.826Z,13.53
2022-12-29T09:42:51.833Z,15.43
2022-12-29T09:45:06.258Z,13.67
2022-12-29T09:47:12.931Z,14.33
2022-12-29T09:49:21.232Z,14.20
2022-12-29T09:51:25.645Z,12.93
2022-12-29T09:53:35.700Z,16.23
2022-12-29T09:55:47.176Z,16.77
2022-12-29T09:58:01.117Z,19.10
2022-12-29T10:00:12.676Z,19.20
2022-12-29T10:02:35.790Z,15.13
2022-12-29T10:04:45.679Z,15.80
2022-12-29T10:07:29.654Z,16.03
2022-12-29T10:09:38.327Z,18.07
2022-12-29T10:12:11.183Z,20.27
2022-12-29T10:14:21.896Z,17.83
2022-12-29T10:16:45.453Z,20.87
2022-12-29T10:19:07.311Z,30.40
2022-12-29T10:21:12.356Z,26.17
2022-12-29T10:23:26.776Z,24.03
2022-12-29T10:25:35.632Z,25.83
2022-12-29T10:27:38.476Z,27.00
2022-12-29T10:29:53.458Z,20.67
2022-12-29T10:32:07.303Z,17.37
2022-12-29T10:34:23.671Z,15.83
2022-12-29T10:36:31.385Z,16.23
2022-12-29T10:38:48.497Z,13.33
2022-12-29T10:41:06.712Z,10.73
2022-12-29T10:43:27.315Z,11.27
2022-12-29T10:45:33.153Z,11.63
2022-12-29T10:47:43.104Z,17.87
2022-12-29T10:49:48.544Z,18.03
2022-12-29T10:51:53.239Z,16.67
2022-12-29T10:54:12.511Z,13.37
2022-12-29T10:56:26.530Z,22.37
2022-12-29T10:58:31.518Z,12.43
2022-12-29T11:00:34.886Z,93.80
2022-12-29T11:02:46.235Z,38.57
2022-12-29T11:05:06.579Z,53.10
2022-12-29T11:07:15.604Z,58.07
2022-12-29T11:09:41.565Z,56.60
2022-12-29T11:11:44.875Z,63.28
2022-12-29T11:13:51.135Z,54.40
2022-12-29T11:15:53.663Z,70.60
2022-12-29T11:18:00.679Z,32.97
2022-12-29T11:20:30.198Z,22.23
2022-12-29T11:22:38.454Z,21.93
2022-12-29T11:24:48.324Z,17.67
2022-12-29T11:26:54.333Z,21.05
2022-12-29T11:29:18.174Z,24.35
2022-12-29T11:31:23.220Z,29.13
2022-12-29T11:33:29.136Z,23.58
2022-12-29T11:35:37.994Z,23.52
2022-12-29T11:37:44.778Z,26.88
2022-12-29T11:39:58.655Z,28.30
2022-12-29T11:42:03.819Z,15.35
2022-12-29T11:44:10.336Z,9.25
2022-12-29T11:46:27.029Z,13.52
2022-12-29T11:48:33.503Z,14.75
2022-12-29T11:50:40.326Z,9.80
2022-12-29T11:52:43.569Z,17.40
2022-12-29T11:54:45.552Z,16.35
2022-12-29T11:56:48.241Z,14.73
2022-12-29T11:58:51.599Z,10.57
2022-12-29T12:00:53.908Z,21.23
2022-12-29T12:03:01.873Z,14.13
2022-12-29T12:05:12.643Z,12.98
2022-12-29T12:07:38.151Z,13.33
2022-12-29T12:09:50.367Z,10.25
2022-12-29T12:11:56.766Z,9.88
2022-12-29T12:13:58.876Z,10.38
2022-12-29T12:16:15.464Z,9.18
2022-12-29T12:18:32.684Z,13.48
2022-12-29T12:20:51.314Z,11.50
2022-12-29T12:23:20.176Z,8.88
2022-12-29T12:25:32.200Z,14.88
2022-12-29T12:27:41.308Z,17.35
2022-12-29T12:30:07.030Z,15.60
2022-12-29T12:32:44.243Z,9.65
2022-12-29T12:34:49.022Z,6.53
2022-12-29T12:36:57.542Z,6.88
2022-12-29T12:39:09.995Z,5.15
2022-12-29T12:41:21.931Z,5.60
2022-12-29T12:44:01.401Z,5.18
2022-12-29T12:46:37.541Z,4.45
2022-12-29T12:49:02.699Z,4.13
2022-12-29T12:51:24.792Z,5.50
2022-12-29T12:53:33.136Z,4.97
2022-12-29T12:55:57.385Z,5.88
2022-12-29T12:58:11.731Z,11.82
2022-12-29T13:00:20.935Z,13.10
2022-12-29T13:02:47.575Z,13.57
2022-12-29T13:05:06.623Z,13.43
2022-12-29T13:07:19.406Z,12.18
2022-12-29T13:09:32.939Z,12.88
2022-12-29T13:12:00.995Z,15.43
2022-12-29T13:14:37.004Z,12.43
2022-12-29T13:16:55.011Z,13.10
2022-12-29T13:19:12.151Z,9.27
2022-12-29T13:21:40.574Z,10.27
2022-12-29T13:23:56.288Z,11.82
2022-12-29T13:26:37.221Z,9.68
2022-12-29T13:29:35.046Z,13.50
2022-12-29T13:31:42.358Z,10.10
2022-12-29T13:34:17.775Z,12.88
2022-12-29T13:40:20.028Z,11.48
2022-12-29T13:42:24.088Z,12.48
2022-12-29T13:44:50.093Z,14.55
2022-12-29T13:46:53.100Z,14.85
2022-12-29T13:49:20.330Z,17.50
2022-12-29T13:51:27.951Z,13.70
2022-12-29T13:53:55.916Z,12.32
2022-12-29T13:56:32.391Z,13.75
2022-12-29T13:58:58.739Z,13.35
2022-12-29T14:01:09.220Z,16.83
2022-12-29T14:03:45.409Z,24.42
2022-12-29T14:06:06.096Z,53.67
2022-12-29T14:08:18.065Z,65.40
2022-12-29T14:10:29.689Z,63.90
2022-12-29T14:12:46.124Z,64.28
2022-12-29T14:14:48.701Z,61.90
2022-12-29T14:16:51.347Z,85.57
2022-12-29T14:18:55.374Z,84.15
2022-12-29T14:21:08.470Z,78.32
2022-12-29T14:23:10.545Z,74.60
2022-12-29T14:26:01.626Z,69.18
2022-12-29T14:28:24.006Z,42.85
2022-12-29T14:30:49.717Z,39.20
2022-12-29T14:33:15.711Z,41.70
2022-12-29T14:35:40.594Z,38.90
2022-12-29T14:37:42.642Z,57.55
2022-12-29T14:39:46.196Z,45.20
2022-12-29T14:41:48.504Z,52.47
2022-12-29T14:44:18.843Z,60.38
2022-12-29T14:46:21.401Z,85.00
2022-12-29T14:48:44.771Z,73.25
2022-12-29T14:50:47.648Z,80.13
2022-12-29T14:53:03.145Z,62.97
2022-12-29T14:55:18.777Z,61.17
2022-12-29T14:57:27.092Z,42.00
2022-12-29T14:59:33.478Z,36.72
2022-12-29T15:01:52.330Z,32.92
2022-12-29T15:04:04.653Z,29.85
2022-12-29T15:06:17.828Z,32.53
2022-12-29T15:08:31.249Z,42.20
2022-12-29T15:10:40.842Z,95.37
2022-12-29T15:12:52.778Z,94.90
2022-12-29T15:14:58.054Z,82.90
2022-12-29T15:17:01.135Z,92.13
2022-12-29T15:19:03.976Z,110.73
2022-12-29T15:21:07.915Z,107.53
2022-12-29T15:23:13.242Z,116.20
2022-12-29T15:25:19.012Z,87.20
2022-12-29T15:27:26.542Z,70.13
2022-12-29T15:29:45.916Z,67.37
2022-12-29T15:31:49.943Z,57.30
2022-12-29T15:33:54.444Z,44.07
2022-12-29T15:35:58.614Z,47.23
2022-12-29T15:38:01.143Z,39.33
2022-12-29T15:40:22.440Z,34.87
2022-12-29T15:42:52.401Z,36.23
2022-12-29T15:45:09.275Z,25.13
2022-12-29T15:47:22.920Z,17.73
2022-12-29T15:49:30.471Z,21.30
2022-12-29T15:51:39.660Z,15.63
2022-12-29T15:53:41.732Z,21.17
2022-12-29T15:55:45.360Z,24.80
2022-12-29T15:57:47.581Z,43.57
2022-12-29T15:59:49.810Z,139.63
2022-12-29T16:01:52.480Z,76.63
2022-12-29T16:03:55.698Z,34.15
2022-12-29T16:06:09.292Z,17.07
2022-12-29T16:08:41.290Z,10.45
2022-12-29T16:10:44.459Z,8.27
2022-12-29T16:12:46.542Z,7.17
2022-12-29T16:14:54.417Z,7.90
2022-12-29T16:17:00.592Z,7.90
2022-12-29T16:19:25.992Z,8.52
2022-12-29T16:21:31.165Z,11.10
2022-12-29T16:23:37.509Z,16.58
2022-12-29T16:25:42.063Z,16.97
2022-12-29T16:27:45.148Z,21.23
2022-12-29T16:29:50.882Z,32.67
2022-12-29T16:32:06.737Z,41.63
2022-12-29T16:34:26.262Z,68.27
2022-12-29T16:36:34.684Z,76.45
2022-12-29T16:38:36.748Z,69.10
2022-12-29T16:40:42.233Z,65.32
2022-12-29T16:42:50.592Z,63.65
2022-12-29T16:45:21.952Z,56.28
2022-12-29T16:47:24.802Z,50.47
2022-12-29T16:49:28.182Z,35.03
2022-12-29T16:51:33.371Z,44.72
2022-12-29T16:53:43.984Z,39.15
2022-12-29T16:55:53.737Z,31.75
2022-12-29T16:58:00.439Z,44.00
2022-12-29T17:00:07.836Z,38.53
2022-12-29T17:02:23.076Z,17.27
2022-12-29T17:04:25.393Z,14.02
2022-12-29T17:06:27.632Z,9.37
2022-12-29T17:08:29.582Z,10.40
2022-12-29T17:10:52.930Z,14.77
2022-12-29T17:12:55.536Z,9.10
2022-12-29T17:15:13.724Z,19.87
2022-12-29T17:17:25.526Z,20.83
2022-12-29T17:19:36.155Z,17.27
2022-12-29T17:21:38.261Z,16.30
2022-12-29T17:23:40.186Z,13.38
2022-12-29T17:25:42.691Z,12.52
2022-12-29T17:27:55.418Z,20.73
2022-12-29T17:30:04.999Z,19.13
2022-12-29T17:32:13.106Z,18.33
2022-12-29T17:34:15.653Z,23.57
2022-12-29T17:36:17.864Z,29.97
2022-12-29T17:38:31.403Z,25.20
2022-12-29T17:40:34.090Z,36.25
2022-12-29T17:42:44.324Z,34.43
2022-12-29T17:44:49.291Z,65.70
2022-12-29T17:46:51.213Z,54.20
2022-12-29T17:48:54.176Z,30.35
2022-12-29T17:50:58.305Z,22.47
2022-12-29T17:53:04.273Z,14.03
2022-12-29T17:55:06.613Z,13.70
2022-12-29T17:57:12.963Z,22.03
2022-12-29T17:59:15.633Z,18.60
2022-12-29T18:01:21.942Z,21.58
2022-12-29T18:03:41.656Z,14.05
2022-12-29T18:05:44.430Z,8.23
2022-12-29T18:07:47.020Z,6.97
2022-12-29T18:09:49.231Z,7.27
2022-12-29T18:11:51.178Z,7.80
2022-12-29T18:13:54.332Z,7.07
2022-12-29T18:15:57.543Z,6.80
2022-12-29T18:18:20.812Z,7.65
2022-12-29T18:20:26.039Z,5.37
2022-12-29T18:22:29.330Z,5.97
2022-12-29T18:24:31.289Z,5.55
2022-12-29T18:26:35.962Z,7.13
2022-12-29T18:28:38.130Z,6.70
2022-12-29T18:30:40.394Z,7.33
2022-12-29T18:32:42.827Z,5.78
2022-12-29T18:34:45.380Z,6.45
2022-12-29T18:36:47.797Z,6.50
2022-12-29T18:38:56.162Z,7.03
2022-12-29T18:41:00.320Z,7.20
2022-12-29T18:43:03.442Z,5.30
2022-12-29T18:45:26.003Z,5.00
2022-12-29T18:47:28.087Z,7.30
2022-12-29T18:49:30.435Z,8.77
2022-12-29T18:51:32.635Z,10.90
2022-12-29T18:53:37.778Z,19.02
2022-12-29T18:55:40.233Z,17.60
2022-12-29T18:57:42.257Z,29.90
2022-12-29T18:59:44.299Z,42.80
2022-12-29T19:01:46.549Z,26.77
2022-12-29T19:03:49.065Z,22.27
2022-12-29T19:05:51.223Z,23.73
2022-12-29T19:07:54.477Z,24.40
2022-12-29T19:10:03.611Z,19.40
2022-12-29T19:12:06.495Z,17.45
2022-12-29T19:14:17.713Z,20.70
2022-12-29T19:16:21.886Z,22.90
2022-12-29T19:18:48.748Z,20.87
2022-12-29T19:20:53.062Z,20.97
2022-12-29T19:22:56.306Z,16.37
2022-12-29T19:25:00.320Z,19.20
2022-12-29T19:27:02.609Z,19.60
2022-12-29T19:29:11.609Z,16.95
2022-12-29T19:31:13.842Z,14.27
2022-12-29T19:33:16.339Z,15.47
2022-12-29T19:35:19.595Z,15.27
2022-12-29T19:37:23.247Z,15.37
2022-12-29T19:39:25.468Z,12.30
2022-12-29T19:41:27.593Z,13.10
2022-12-29T19:43:29.896Z,18.57
2022-12-29T19:45:31.968Z,19.55
2022-12-29T19:47:35.122Z,20.07
2022-12-29T19:49:37.342Z,46.23
2022-12-29T19:51:39.429Z,83.87
2022-12-29T19:53:41.389Z,28.00
2022-12-29T19:55:48.134Z,18.53
2022-12-29T19:57:50.819Z,41.67
2022-12-29T19:59:55.141Z,42.93
2022-12-29T20:01:57.573Z,68.47
2022-12-29T20:04:02.293Z,101.30
2022-12-29T20:06:07.451Z,103.28
2022-12-29T20:08:09.958Z,82.03
2022-12-29T20:10:12.057Z,56.90
2022-12-29T20:12:14.276Z,46.25
2022-12-29T20:14:17.359Z,29.80
2022-12-29T20:16:20.857Z,23.93
2022-12-29T20:18:28.760Z,26.57
2022-12-29T20:20:34.462Z,26.52
2022-12-29T20:22:36.658Z,18.67
2022-12-29T20:24:45.201Z,17.75
2022-12-29T20:26:50.897Z,21.90
2022-12-29T20:28:53.697Z,19.85
2022-12-29T20:30:57.022Z,18.38
2022-12-29T20:33:03.322Z,19.90
2022-12-29T20:35:11.821Z,18.37
2022-12-29T20:37:15.350Z,19.13
2022-12-29T20:39:20.587Z,22.60
2022-12-29T20:41:23.111Z,23.47
2022-12-29T20:43:25.257Z,26.17
2022-12-29T20:45:27.337Z,23.33
2022-12-29T20:47:29.449Z,41.58
2022-12-29T20:49:31.790Z,36.28
2022-12-29T20:52:03.901Z,47.22
2022-12-29T20:53:57.013Z,48.80
2022-12-29T20:56:04.968Z,36.53
2022-12-29T20:58:23.898Z,32.30
2022-12-29T21:00:26.578Z,30.70
2022-12-29T21:02:28.813Z,16.60
2022-12-29T21:04:50.091Z,15.60
2022-12-29T21:06:54.072Z,12.43
2022-12-29T21:08:56.100Z,29.80
2022-12-29T21:12:14.302Z,60.65
2022-12-29T21:14:16.834Z,43.90
2022-12-29T21:16:21.313Z,50.00
2022-12-29T21:18:23.716Z,36.20
2022-12-29T21:20:32.224Z,21.58
2022-12-29T21:22:34.495Z,15.33
2022-12-29T21:24:37.935Z,13.60
2022-12-29T21:26:40.049Z,8.85
2022-12-29T21:28:43.759Z,10.37
2022-12-29T21:30:46.298Z,9.93
2022-12-29T21:32:48.796Z,12.40
2022-12-29T21:34:51.353Z,9.75
2022-12-29T21:36:53.841Z,13.20
2022-12-29T21:38:58.535Z,12.32
2022-12-29T21:41:08.460Z,11.38
2022-12-29T21:43:11.562Z,15.60
2022-12-29T21:45:25.702Z,19.35
2022-12-29T21:47:47.849Z,12.13
2022-12-29T21:49:49.961Z,24.03
2022-12-29T21:51:55.158Z,26.03
2022-12-29T21:54:19.872Z,29.87
2022-12-29T21:56:22.855Z,27.13
2022-12-29T21:58:45.276Z,36.35
2022-12-29T22:01:05.944Z,25.80
2022-12-29T22:03:26.740Z,27.58
2022-12-29T22:05:47.408Z,23.77
2022-12-29T22:08:11.580Z,23.97
2022-12-29T22:10:32.532Z,22.47
2022-12-29T22:12:53.072Z,26.83
2022-12-29T22:14:55.240Z,17.93
2022-12-29T22:16:58.707Z,19.87
2022-12-29T22:19:00.815Z,20.08
2022-12-29T22:21:08.494Z,18.83
2022-12-29T22:23:10.651Z,23.10
2022-12-29T22:25:12.951Z,18.50
2022-12-29T22:27:15.236Z,16.27
2022-12-29T22:29:17.184Z,23.40
2022-12-29T22:31:31.003Z,31.50
2022-12-29T22:33:33.384Z,31.35
2022-12-29T22:35:35.779Z,22.77
2022-12-29T22:37:39.353Z,22.20
2022-12-29T22:39:41.604Z,16.97
2022-12-29T22:41:43.742Z,17.70
2022-12-29T22:43:46.221Z,23.80
2022-12-29T22:45:48.274Z,23.47
2022-12-29T22:47:50.378Z,19.35
2022-12-29T22:49:52.507Z,21.17
2022-12-29T22:51:54.656Z,21.10
2022-12-29T22:53:56.816Z,27.07
2022-12-29T22:56:06.563Z,22.00
2022-12-29T22:58:08.754Z,33.20
2022-12-29T23:00:11.469Z,27.52
2022-12-29T23:02:13.666Z,28.53
2022-12-29T23:06:39.053Z,34.63
2022-12-29T23:08:41.392Z,34.33
2022-12-29T23:10:43.505Z,29.57
2022-12-29T23:12:45.422Z,44.20
2022-12-29T23:14:47.644Z,42.37
2022-12-29T23:16:49.564Z,32.03
2022-12-29T23:18:56.349Z,29.93
2022-12-29T23:20:59.219Z,26.00
2022-12-29T23:23:01.777Z,21.27
2022-12-29T23:25:06.306Z,19.63
2022-12-29T23:27:08.455Z,20.83
2022-12-29T23:29:13.782Z,23.93
2022-12-29T23:31:16.710Z,20.30
2022-12-29T23:33:19.377Z,15.17
2022-12-29T23:35:21.764Z,14.80
2022-12-29T23:37:23.823Z,12.30
2022-12-29T23:39:26.132Z,13.33
2022-12-29T23:41:28.802Z,15.03
2022-12-29T23:43:30.798Z,15.30
2022-12-29T23:45:36.105Z,16.50
2022-12-29T23:47:38.135Z,19.30
2022-12-29T23:49:40.292Z,16.10
2022-12-29T23:51:42.625Z,17.30
2022-12-29T23:53:45.712Z,17.27
2022-12-29T23:55:53.658Z,16.27
2022-12-29T23:57:55.627Z,15.90
2022-12-29T23:59:57.687Z,16.80
